Durango Ski Resort, Colorado Weather observations

Data are for observation ending at time listed.
 Day   Time    Ave.   Ave.  Ave.  Vector   Max.    Total    Solar   Ave.  
  of    of     Air    Rel.  Wind   Wind    Wind   Precip.   Rad.    Soil  
Year   Day     Temp.  Hum.  Speed  Dir.    Gust                     Temp. 
2014   (PST)    F      %     mph   deg.    mph      in.     W/m2     F   
------------------------------------------------------------------------------
 264   15:30   53.3    65    5.6   188      9.9    99999.00   99999    99999.0
 264   15:40   52.8    66    5.9   178     12.1    99999.00   99999    99999.0
 264   15:50   52.5    68    3.0   175      6.5    99999.00   99999    99999.0
 264   16:00   52.7    67    3.8   175      9.1    99999.00   99999    99999.0
 264   16:10   52.5    64    7.1   186     10.8    99999.00   99999    99999.0
 264   16:20   53.1    64    5.0   177      9.1    99999.00   99999    99999.0
 264   16:30   53.6    62    5.3   174     11.2    99999.00   99999    99999.0
 264   16:40   53.0    55    9.1   191     17.6    99999.00   99999    99999.0
 264   16:50   52.8    56    4.5   194     10.8    99999.00   99999    99999.0
 264   17:00   52.4    58    2.0   185      8.6    99999.00   99999    99999.0
 264   17:10   52.1    61    0.2   181      4.8    99999.00   99999    99999.0
 264   17:20   51.4    64    0.6   153      4.8    99999.00   99999    99999.0
 264   17:30   51.0    66    0.0     0      0.0    99999.00   99999    99999.0
 264   17:40   50.7    66    0.0     0      0.0    99999.00   99999    99999.0
 264   17:50   50.6    65    0.0     0      0.0    99999.00   99999    99999.0
 264   18:00   50.5    64    1.1   165      6.1    99999.00   99999    99999.0
 264   18:10   50.6    63    0.0     0      0.0    99999.00   99999    99999.0
 264   18:20   50.7    61    0.0     0      0.0    99999.00   99999    99999.0
 264   18:30   49.9    65    6.7   177     15.9    99999.00   99999    99999.0
 264   18:40   49.0    66    5.0   173     11.2    99999.00   99999    99999.0
 264   18:50   49.0    64    2.4   178      6.1    99999.00   99999    99999.0
 264   19:00   49.1    64    4.9   170      7.4    99999.00   99999    99999.0
 264   19:10   49.3    64    4.8   174      7.8    99999.00   99999    99999.0
 264   19:20   49.1    65    4.8   165      7.8    99999.00   99999    99999.0
 264   19:30   49.3    64    4.7   146      7.4    99999.00   99999    99999.0
 264   19:40   49.8    63    3.5   141      6.1    99999.00   99999    99999.0
 264   19:50   49.9    63    2.2   142      5.7    99999.00   99999    99999.0
 264   20:00   49.8    63    4.6   146      6.1    99999.00   99999    99999.0
 264   20:10   49.7    63    5.5   162      7.8    99999.00   99999    99999.0
 264   20:20   49.3    64    6.4   171     10.3    99999.00   99999    99999.0
 264   20:30   49.2    65    7.3   171     11.2    99999.00   99999    99999.0
 264   20:40   49.4    66    7.1   171     10.8    99999.00   99999    99999.0
 264   20:50   49.1    68    7.9   172     13.8    99999.00   99999    99999.0
 264   21:00   49.0    70    8.7   174     13.3    99999.00   99999    99999.0
 264   21:10   48.8    73    8.5   174     12.9    99999.00   99999    99999.0
 264   21:20   46.4    88    7.6   170     14.6    99999.00   99999    99999.0
 264   21:30   45.4    92    7.2   159     13.8    99999.00   99999    99999.0
 264   21:40   44.9    94    6.5   165     11.6    99999.00   99999    99999.0
 264   21:50   44.7    94    6.9   175     12.1    99999.00   99999    99999.0
 264   22:00   45.1    92    6.8   181     11.2    99999.00   99999    99999.0
 264   22:10   45.3    93    5.8   191      9.1    99999.00   99999    99999.0
 264   22:20   45.2    94    5.1   187      8.2    99999.00   99999    99999.0
 264   22:30   45.2    95    4.9   178      9.1    99999.00   99999    99999.0
 264   22:40   45.0    96    3.6   170      7.4    99999.00   99999    99999.0
 264   22:50   44.8    97    6.5   181     10.8    99999.00   99999    99999.0
 264   23:00   44.6    97    6.2   189     10.8    99999.00   99999    99999.0
 264   23:10   44.7    98    6.6   177     14.2    99999.00   99999    99999.0
 264   23:20   44.9    98    3.3   182      8.2    99999.00   99999    99999.0
 264   23:30   45.0    98    4.8   181     11.2    99999.00   99999    99999.0
 264   23:40   45.3    98    9.9   178     18.5    99999.00   99999    99999.0
 264   23:50   45.5    99    8.3   181     15.9    99999.00   99999    99999.0
 265    0:00   45.5    99    9.3   172     18.9    99999.00   99999    99999.0
 265    0:10   45.4    99    8.8   169     18.0    99999.00   99999    99999.0
 265    0:20   45.3    99   10.1   166     16.8    99999.00   99999    99999.0
 265    0:30   45.3    99    8.6   168     16.8    99999.00   99999    99999.0
 265    0:40   45.2    99    9.8   164     17.6    99999.00   99999    99999.0
 265    0:50   45.1    99    8.8   168     15.0    99999.00   99999    99999.0
 265    1:00   45.2    99    8.4   179     16.3    99999.00   99999    99999.0
 265    1:10   45.2    99    7.3   169     14.6    99999.00   99999    99999.0
 265    1:20   45.4    99    7.3   187     15.9    99999.00   99999    99999.0
 265    1:30   45.4    99    8.4   182     17.2    99999.00   99999    99999.0
 265    1:40   45.4    99    9.0   178     17.2    99999.00   99999    99999.0
 265    1:50   45.4    99    8.0   187     15.0    99999.00   99999    99999.0
 265    2:00   45.3    99   10.1   184     18.9    99999.00   99999    99999.0
 265    2:10   45.3    99    6.9   188     14.6    99999.00   99999    99999.0
 265    2:20   45.3    99    6.1   191     12.1    99999.00   99999    99999.0
 265    2:30   45.1    99    9.7   201     17.2    99999.00   99999    99999.0
 265    2:40   43.6    99   11.7   196     20.2    99999.00   99999    99999.0
 265    2:50   43.6   100    9.4   197     16.8    99999.00   99999    99999.0
 265    3:00   43.8    99    7.3   196     12.1    99999.00   99999    99999.0
 265    3:10   43.9    99    5.5   190      9.1    99999.00   99999    99999.0
 265    3:20   44.0    99    3.8   199      6.5    99999.00   99999    99999.0
 265    3:30   44.1    99    0.1   187      4.4    99999.00   99999    99999.0
 265    3:40   44.1    99    0.0     0      0.0    99999.00   99999    99999.0
 265    3:50   44.1    99    0.7   214      4.4    99999.00   99999    99999.0
 265    4:00   44.1    99    0.7   226      3.9    99999.00   99999    99999.0
 265    4:10   44.1    99    0.0     0      0.0    99999.00   99999    99999.0
 265    4:20   44.0    99    0.0     0      0.0    99999.00   99999    99999.0
 265    4:30   44.0    99    0.0     0      0.0    99999.00   99999    99999.0
 265    4:40   44.0    99    0.0     0      0.0    99999.00   99999    99999.0
 265    4:50   44.0    99    0.0     0      0.0    99999.00   99999    99999.0
 265    5:00   44.1    99    0.0     0      0.0    99999.00   99999    99999.0
 265    5:10   43.9    99    1.9   190      5.2    99999.00   99999    99999.0
 265    5:20   43.9    99    1.3   186      5.2    99999.00   99999    99999.0
 265    5:30   44.1    99    1.5   165      4.8    99999.00   99999    99999.0
 265    5:40   44.2    99    2.1   149      5.7    99999.00   99999    99999.0
 265    5:50   44.0    99    1.2   185      4.8    99999.00   99999    99999.0
 265    6:00   44.1    99    3.0   163      6.9    99999.00   99999    99999.0
 265    6:10   44.1    99    6.2   163      9.9    99999.00   99999    99999.0
 265    6:20   44.0    99    6.8   171      9.5    99999.00   99999    99999.0
 265    6:30   44.0    99    7.0   178     11.6    99999.00   99999    99999.0
 265    6:40   44.0    99    6.0   189     11.2    99999.00   99999    99999.0
 265    6:50   44.0   100    5.0   185     10.8    99999.00   99999    99999.0
 265    7:00   44.0   100    3.9   194      6.9    99999.00   99999    99999.0
 265    7:10   44.1   100    3.0   196      6.9    99999.00   99999    99999.0
 265    7:20   44.2   100    2.8   196      5.7    99999.00   99999    99999.0
 265    7:30   44.6    99    1.0   194      6.1    99999.00   99999    99999.0
 265    7:40   44.4    99    3.0   196      6.9    99999.00   99999    99999.0
 265    7:50   44.5    99    1.7   196      5.2    99999.00   99999    99999.0
 265    8:00   44.7    99    0.2   196      4.4    99999.00   99999    99999.0
 265    8:10   44.9    99    0.0   196      2.7    99999.00   99999    99999.0
 265    8:20   45.3    99    0.0     0      0.0    99999.00   99999    99999.0
 265    8:30   45.1    99    0.1   196      3.5    99999.00   99999    99999.0
 265    8:40   45.9    99    0.0     0      0.0    99999.00   99999    99999.0
 265    8:50   46.0    99    0.1   196      3.5    99999.00   99999    99999.0
 265    9:00   45.6    98    2.0   224      6.1    99999.00   99999    99999.0
 265    9:10   45.9    98    2.3   223      6.5    99999.00   99999    99999.0
 265    9:20   46.1    98    1.2   223      5.2    99999.00   99999    99999.0
 265    9:30   47.3    96    1.8   222      5.7    99999.00   99999    99999.0
 265    9:40   47.8    95    0.1   200      3.5    99999.00   99999    99999.0
 265    9:50   48.8    93    0.1   199      3.1    99999.00   99999    99999.0
 265   10:00   47.9    94    0.0   201      2.7    99999.00   99999    99999.0
 265   10:10   46.3    95    2.5   196     10.3    99999.00   99999    99999.0
 265   10:20   45.7    96    2.7   206      6.9    99999.00   99999    99999.0
 265   10:30   46.7    96    3.4   223      7.4    99999.00   99999    99999.0
 265   10:40   48.0    95    2.9   195      7.4    99999.00   99999    99999.0
 265   10:50   48.2    92    4.1   215      9.5    99999.00   99999    99999.0
 265   11:00   48.2    93    5.8   209      9.1    99999.00   99999    99999.0
 265   11:10   48.6    93    4.9   202      9.9    99999.00   99999    99999.0
 265   11:20   49.2    93    5.9   224     10.3    99999.00   99999    99999.0
 265   11:30   49.1    92    5.7   260     13.3    99999.00   99999    99999.0
 265   11:40   46.9    93    7.5   259     14.2    99999.00   99999    99999.0
 265   11:50   47.2    94    6.3   243     11.6    99999.00   99999    99999.0
 265   12:00   49.4    91    5.0   257     10.8    99999.00   99999    99999.0
 265   12:10   50.4    88    5.4   269     12.5    99999.00   99999    99999.0
 265   12:20   47.6    89    6.6   275     12.5    99999.00   99999    99999.0
 265   12:30   47.4    90    7.9   273     12.1    99999.00   99999    99999.0
 265   12:40   48.0    89    5.7   255      9.1    99999.00   99999    99999.0
 265   12:50   49.3    80    8.8   266     15.5    99999.00   99999    99999.0
 265   13:00   48.9    77    8.4   251     14.2    99999.00   99999    99999.0
 265   13:10   49.8    75    8.5   263     15.5    99999.00   99999    99999.0
 265   13:20   51.9    76    7.1   270     16.8    99999.00   99999    99999.0
 265   13:30   51.5    72    6.9   249     13.3    99999.00   99999    99999.0
 265   13:40   52.9    66    7.4   242     14.6    99999.00   99999    99999.0
 265   13:50   51.8    67    8.7   275     15.0    99999.00   99999    99999.0
 265   14:00   52.2    65    6.6   266     12.9    99999.00   99999    99999.0
 265   14:10   49.9    68   11.0   272     23.1    99999.00   99999    99999.0
 265   14:20   46.2    82   15.2   300     24.0    99999.00   99999    99999.0
 265   14:30   47.7    74   12.5   280     18.9    99999.00   99999    99999.0
 265   14:40   49.7    73    8.1   294     11.6    99999.00   99999    99999.0
 265   14:50   51.2    72    6.9   270     14.2    99999.00   99999    99999.0
 265   15:00   51.3    68    8.9   270     15.0    99999.00   99999    99999.0
 265   15:10   50.8    70    6.2   265     10.8    99999.00   99999    99999.0
 265   15:20   51.9    64    9.9   275     19.7    99999.00   99999    99999.0

Return to Durango Ski Resort, Colorado graphs page.


Western Regional Climate Center,wrcc@dri.edu